sensor_id;sensor_type;location;lat;lon;timestamp;P1;durP1;ratioP1;P2;durP2;ratioP2
70663;SDS011;58237;57.996;56.290;2023-09-30T00:01:11;3.20;;;1.20;;
70663;SDS011;58237;57.996;56.290;2023-09-30T00:03:37;2.20;;;1.00;;
70663;SDS011;58237;57.996;56.290;2023-09-30T00:06:03;2.33;;;0.82;;
70663;SDS011;58237;57.996;56.290;2023-09-30T00:08:29;2.53;;;0.98;;
70663;SDS011;58237;57.996;56.290;2023-09-30T00:10:54;2.63;;;1.00;;
70663;SDS011;58237;57.996;56.290;2023-09-30T00:13:20;3.42;;;1.08;;
70663;SDS011;58237;57.996;56.290;2023-09-30T00:15:46;3.22;;;1.05;;
70663;SDS011;58237;57.996;56.290;2023-09-30T00:18:12;3.40;;;0.90;;
70663;SDS011;58237;57.996;56.290;2023-09-30T00:20:39;2.00;;;0.90;;
70663;SDS011;58237;57.996;56.290;2023-09-30T00:23:04;3.30;;;1.05;;
70663;SDS011;58237;57.996;56.290;2023-09-30T00:25:32;4.90;;;1.48;;
70663;SDS011;58237;57.996;56.290;2023-09-30T00:27:57;9.82;;;4.70;;
70663;SDS011;58237;57.996;56.290;2023-09-30T00:30:23;20.00;;;8.93;;
70663;SDS011;58237;57.996;56.290;2023-09-30T00:32:49;20.80;;;9.88;;
70663;SDS011;58237;57.996;56.290;2023-09-30T00:35:14;15.18;;;7.75;;
70663;SDS011;58237;57.996;56.290;2023-09-30T00:37:41;13.35;;;6.70;;
70663;SDS011;58237;57.996;56.290;2023-09-30T00:40:07;13.75;;;5.38;;
70663;SDS011;58237;57.996;56.290;2023-09-30T00:42:40;10.40;;;3.30;;
70663;SDS011;58237;57.996;56.290;2023-09-30T00:45:06;7.30;;;3.28;;
70663;SDS011;58237;57.996;56.290;2023-09-30T00:47:34;5.32;;;2.42;;
70663;SDS011;58237;57.996;56.290;2023-09-30T00:50:01;4.60;;;1.83;;
70663;SDS011;58237;57.996;56.290;2023-09-30T00:52:30;5.38;;;1.73;;
70663;SDS011;58237;57.996;56.290;2023-09-30T00:54:57;4.82;;;1.23;;
70663;SDS011;58237;57.996;56.290;2023-09-30T00:57:22;4.72;;;1.52;;
70663;SDS011;58237;57.996;56.290;2023-09-30T00:59:49;2.97;;;0.85;;
70663;SDS011;58237;57.996;56.290;2023-09-30T01:02:15;1.30;;;0.65;;
70663;SDS011;58237;57.996;56.290;2023-09-30T01:04:41;2.55;;;0.85;;
70663;SDS011;58237;57.996;56.290;2023-09-30T01:07:07;2.28;;;0.90;;
70663;SDS011;58237;57.996;56.290;2023-09-30T01:09:34;2.15;;;0.90;;
70663;SDS011;58237;57.996;56.290;2023-09-30T01:12:02;2.53;;;1.02;;
70663;SDS011;58237;57.996;56.290;2023-09-30T01:14:29;3.50;;;0.90;;
70663;SDS011;58237;57.996;56.290;2023-09-30T01:16:55;3.63;;;0.80;;
70663;SDS011;58237;57.996;56.290;2023-09-30T01:19:20;1.98;;;0.75;;
70663;SDS011;58237;57.996;56.290;2023-09-30T01:21:46;3.15;;;0.80;;
70663;SDS011;58237;57.996;56.290;2023-09-30T01:24:14;1.52;;;0.70;;
70663;SDS011;58237;57.996;56.290;2023-09-30T01:26:39;1.52;;;0.60;;
70663;SDS011;58237;57.996;56.290;2023-09-30T01:29:05;2.35;;;0.90;;
70663;SDS011;58237;57.996;56.290;2023-09-30T01:31:31;3.00;;;0.85;;
70663;SDS011;58237;57.996;56.290;2023-09-30T01:33:56;3.33;;;0.90;;
70663;SDS011;58237;57.996;56.290;2023-09-30T01:36:22;1.60;;;0.68;;
70663;SDS011;58237;57.996;56.290;2023-09-30T01:38:48;2.92;;;0.88;;
70663;SDS011;58237;57.996;56.290;2023-09-30T01:41:13;1.48;;;0.70;;
70663;SDS011;58237;57.996;56.290;2023-09-30T01:43:39;3.72;;;0.77;;
70663;SDS011;58237;57.996;56.290;2023-09-30T01:46:04;1.73;;;0.70;;
70663;SDS011;58237;57.996;56.290;2023-09-30T01:48:31;1.35;;;0.60;;
70663;SDS011;58237;57.996;56.290;2023-09-30T01:50:57;1.48;;;0.70;;
70663;SDS011;58237;57.996;56.290;2023-09-30T01:53:23;2.75;;;0.80;;
70663;SDS011;58237;57.996;56.290;2023-09-30T01:55:48;2.67;;;0.77;;
70663;SDS011;58237;57.996;56.290;2023-09-30T01:58:14;4.28;;;0.85;;
70663;SDS011;58237;57.996;56.290;2023-09-30T02:00:39;2.22;;;0.75;;
70663;SDS011;58237;57.996;56.290;2023-09-30T02:03:05;2.58;;;0.73;;
70663;SDS011;58237;57.996;56.290;2023-09-30T02:05:31;3.38;;;1.02;;
70663;SDS011;58237;57.996;56.290;2023-09-30T02:07:56;3.30;;;0.93;;
70663;SDS011;58237;57.996;56.290;2023-09-30T02:10:22;6.32;;;0.68;;
70663;SDS011;58237;57.996;56.290;2023-09-30T02:12:49;3.00;;;1.05;;
70663;SDS011;58237;57.996;56.290;2023-09-30T02:15:15;1.55;;;0.70;;
70663;SDS011;58237;57.996;56.290;2023-09-30T02:17:42;1.70;;;0.60;;
70663;SDS011;58237;57.996;56.290;2023-09-30T02:20:11;1.92;;;0.70;;
70663;SDS011;58237;57.996;56.290;2023-09-30T02:22:58;1.38;;;0.63;;
70663;SDS011;58237;57.996;56.290;2023-09-30T02:25:24;2.45;;;0.80;;
70663;SDS011;58237;57.996;56.290;2023-09-30T02:27:50;2.33;;;0.70;;
70663;SDS011;58237;57.996;56.290;2023-09-30T02:30:15;2.25;;;0.65;;
70663;SDS011;58237;57.996;56.290;2023-09-30T02:32:41;1.95;;;0.70;;
70663;SDS011;58237;57.996;56.290;2023-09-30T02:35:07;1.20;;;0.60;;
70663;SDS011;58237;57.996;56.290;2023-09-30T02:37:33;1.65;;;0.60;;
70663;SDS011;58237;57.996;56.290;2023-09-30T02:40:05;3.10;;;0.82;;
70663;SDS011;58237;57.996;56.290;2023-09-30T02:42:35;1.52;;;0.70;;
70663;SDS011;58237;57.996;56.290;2023-09-30T02:45:02;2.17;;;0.82;;
70663;SDS011;58237;57.996;56.290;2023-09-30T02:47:31;1.70;;;0.55;;
70663;SDS011;58237;57.996;56.290;2023-09-30T02:49:57;2.35;;;0.70;;
70663;SDS011;58237;57.996;56.290;2023-09-30T02:52:23;1.20;;;0.60;;
70663;SDS011;58237;57.996;56.290;2023-09-30T02:54:49;3.45;;;0.90;;
70663;SDS011;58237;57.996;56.290;2023-09-30T02:57:14;2.78;;;1.17;;
70663;SDS011;58237;57.996;56.290;2023-09-30T02:59:41;2.97;;;0.70;;
70663;SDS011;58237;57.996;56.290;2023-09-30T03:02:06;1.77;;;0.68;;
70663;SDS011;58237;57.996;56.290;2023-09-30T03:04:32;2.00;;;0.70;;
70663;SDS011;58237;57.996;56.290;2023-09-30T03:06:58;1.08;;;0.50;;
70663;SDS011;58237;57.996;56.290;2023-09-30T03:09:24;1.63;;;0.65;;
70663;SDS011;58237;57.996;56.290;2023-09-30T03:11:49;1.00;;;0.50;;
70663;SDS011;58237;57.996;56.290;2023-09-30T03:14:15;1.60;;;0.70;;
70663;SDS011;58237;57.996;56.290;2023-09-30T03:16:41;1.45;;;0.50;;
70663;SDS011;58237;57.996;56.290;2023-09-30T03:19:07;1.63;;;0.70;;
70663;SDS011;58237;57.996;56.290;2023-09-30T03:21:37;1.23;;;0.70;;
70663;SDS011;58237;57.996;56.290;2023-09-30T03:24:03;2.15;;;0.70;;
70663;SDS011;58237;57.996;56.290;2023-09-30T03:26:29;3.17;;;0.90;;
70663;SDS011;58237;57.996;56.290;2023-09-30T03:28:56;2.95;;;1.15;;
70663;SDS011;58237;57.996;56.290;2023-09-30T03:31:22;8.48;;;1.40;;
70663;SDS011;58237;57.996;56.290;2023-09-30T03:33:49;3.53;;;1.13;;
70663;SDS011;58237;57.996;56.290;2023-09-30T03:36:16;3.08;;;1.13;;
70663;SDS011;58237;57.996;56.290;2023-09-30T03:38:44;2.78;;;1.00;;
70663;SDS011;58237;57.996;56.290;2023-09-30T03:41:10;3.15;;;1.10;;
70663;SDS011;58237;57.996;56.290;2023-09-30T03:43:38;3.92;;;1.10;;
70663;SDS011;58237;57.996;56.290;2023-09-30T03:46:06;3.10;;;1.10;;
70663;SDS011;58237;57.996;56.290;2023-09-30T03:48:32;2.58;;;0.93;;
70663;SDS011;58237;57.996;56.290;2023-09-30T03:51:07;1.83;;;0.75;;
70663;SDS011;58237;57.996;56.290;2023-09-30T03:55:59;2.65;;;0.98;;
70663;SDS011;58237;57.996;56.290;2023-09-30T03:58:24;4.50;;;1.05;;
70663;SDS011;58237;57.996;56.290;2023-09-30T04:00:50;2.78;;;1.20;;
70663;SDS011;58237;57.996;56.290;2023-09-30T04:03:17;4.85;;;1.55;;
70663;SDS011;58237;57.996;56.290;2023-09-30T04:05:42;3.22;;;1.27;;
70663;SDS011;58237;57.996;56.290;2023-09-30T04:08:08;3.03;;;1.20;;
70663;SDS011;58237;57.996;56.290;2023-09-30T04:10:34;4.93;;;1.30;;
70663;SDS011;58237;57.996;56.290;2023-09-30T04:12:59;2.80;;;1.60;;
70663;SDS011;58237;57.996;56.290;2023-09-30T04:15:25;2.40;;;1.13;;
70663;SDS011;58237;57.996;56.290;2023-09-30T04:17:51;2.80;;;1.13;;
70663;SDS011;58237;57.996;56.290;2023-09-30T04:20:19;2.60;;;0.95;;
70663;SDS011;58237;57.996;56.290;2023-09-30T04:22:55;2.70;;;1.30;;
70663;SDS011;58237;57.996;56.290;2023-09-30T04:25:23;4.13;;;1.25;;
70663;SDS011;58237;57.996;56.290;2023-09-30T04:27:51;3.25;;;1.30;;
70663;SDS011;58237;57.996;56.290;2023-09-30T04:30:18;3.45;;;1.45;;
70663;SDS011;58237;57.996;56.290;2023-09-30T04:32:44;9.73;;;1.63;;
70663;SDS011;58237;57.996;56.290;2023-09-30T04:35:09;4.57;;;1.30;;
70663;SDS011;58237;57.996;56.290;2023-09-30T04:37:35;4.22;;;1.38;;
70663;SDS011;58237;57.996;56.290;2023-09-30T04:40:03;3.20;;;1.27;;
70663;SDS011;58237;57.996;56.290;2023-09-30T04:42:34;4.45;;;1.45;;
70663;SDS011;58237;57.996;56.290;2023-09-30T04:45:03;2.78;;;1.20;;
70663;SDS011;58237;57.996;56.290;2023-09-30T04:47:31;4.18;;;1.40;;
70663;SDS011;58237;57.996;56.290;2023-09-30T04:49:57;2.97;;;1.23;;
70663;SDS011;58237;57.996;56.290;2023-09-30T04:52:23;3.78;;;1.65;;
70663;SDS011;58237;57.996;56.290;2023-09-30T04:54:53;4.32;;;1.60;;
70663;SDS011;58237;57.996;56.290;2023-09-30T04:57:18;2.90;;;1.38;;
70663;SDS011;58237;57.996;56.290;2023-09-30T04:59:45;4.68;;;1.20;;
70663;SDS011;58237;57.996;56.290;2023-09-30T05:02:12;3.92;;;1.13;;
70663;SDS011;58237;57.996;56.290;2023-09-30T05:04:40;2.63;;;1.33;;
70663;SDS011;58237;57.996;56.290;2023-09-30T05:07:06;3.35;;;1.20;;
70663;SDS011;58237;57.996;56.290;2023-09-30T05:09:31;3.22;;;1.20;;
70663;SDS011;58237;57.996;56.290;2023-09-30T05:11:57;3.47;;;1.42;;
70663;SDS011;58237;57.996;56.290;2023-09-30T05:14:22;3.95;;;1.55;;
70663;SDS011;58237;57.996;56.290;2023-09-30T05:16:48;3.50;;;1.50;;
70663;SDS011;58237;57.996;56.290;2023-09-30T05:19:14;2.85;;;1.20;;
70663;SDS011;58237;57.996;56.290;2023-09-30T05:21:39;5.63;;;2.03;;
70663;SDS011;58237;57.996;56.290;2023-09-30T05:24:05;3.67;;;1.58;;
70663;SDS011;58237;57.996;56.290;2023-09-30T05:26:31;3.35;;;1.25;;
70663;SDS011;58237;57.996;56.290;2023-09-30T05:28:57;3.10;;;1.30;;
70663;SDS011;58237;57.996;56.290;2023-09-30T05:31:22;4.85;;;1.58;;
70663;SDS011;58237;57.996;56.290;2023-09-30T05:33:48;3.42;;;1.60;;
70663;SDS011;58237;57.996;56.290;2023-09-30T05:36:14;3.15;;;1.27;;
70663;SDS011;58237;57.996;56.290;2023-09-30T05:38:39;2.95;;;1.15;;
70663;SDS011;58237;57.996;56.290;2023-09-30T05:41:05;4.85;;;1.50;;
70663;SDS011;58237;57.996;56.290;2023-09-30T05:43:32;2.83;;;1.35;;
70663;SDS011;58237;57.996;56.290;2023-09-30T05:45:57;3.58;;;1.55;;
70663;SDS011;58237;57.996;56.290;2023-09-30T05:48:24;3.63;;;1.33;;
70663;SDS011;58237;57.996;56.290;2023-09-30T05:50:50;4.43;;;1.73;;
70663;SDS011;58237;57.996;56.290;2023-09-30T05:53:15;6.78;;;1.23;;
70663;SDS011;58237;57.996;56.290;2023-09-30T05:55:42;4.30;;;1.20;;
70663;SDS011;58237;57.996;56.290;2023-09-30T05:58:09;4.20;;;1.60;;
70663;SDS011;58237;57.996;56.290;2023-09-30T06:00:34;5.03;;;1.90;;
70663;SDS011;58237;57.996;56.290;2023-09-30T06:03:00;4.47;;;1.40;;
70663;SDS011;58237;57.996;56.290;2023-09-30T06:05:27;4.78;;;1.60;;
70663;SDS011;58237;57.996;56.290;2023-09-30T06:07:56;4.13;;;1.35;;
70663;SDS011;58237;57.996;56.290;2023-09-30T06:10:22;4.15;;;1.60;;
70663;SDS011;58237;57.996;56.290;2023-09-30T06:12:48;3.13;;;1.20;;
70663;SDS011;58237;57.996;56.290;2023-09-30T06:15:14;4.07;;;1.45;;
70663;SDS011;58237;57.996;56.290;2023-09-30T06:17:41;4.75;;;1.70;;
70663;SDS011;58237;57.996;56.290;2023-09-30T06:20:07;4.82;;;1.45;;
70663;SDS011;58237;57.996;56.290;2023-09-30T06:22:35;4.45;;;1.70;;
70663;SDS011;58237;57.996;56.290;2023-09-30T06:25:01;3.65;;;1.40;;
70663;SDS011;58237;57.996;56.290;2023-09-30T06:27:30;4.60;;;2.17;;
70663;SDS011;58237;57.996;56.290;2023-09-30T06:29:55;4.47;;;1.73;;
70663;SDS011;58237;57.996;56.290;2023-09-30T06:32:21;5.60;;;1.70;;
70663;SDS011;58237;57.996;56.290;2023-09-30T06:34:47;5.40;;;1.60;;
70663;SDS011;58237;57.996;56.290;2023-09-30T06:37:12;4.00;;;2.05;;
70663;SDS011;58237;57.996;56.290;2023-09-30T06:39:39;4.45;;;1.30;;
70663;SDS011;58237;57.996;56.290;2023-09-30T06:42:04;6.97;;;1.55;;
70663;SDS011;58237;57.996;56.290;2023-09-30T06:44:30;4.90;;;1.52;;
70663;SDS011;58237;57.996;56.290;2023-09-30T06:46:56;6.28;;;2.00;;
70663;SDS011;58237;57.996;56.290;2023-09-30T06:49:22;5.68;;;2.25;;
70663;SDS011;58237;57.996;56.290;2023-09-30T06:51:47;4.43;;;2.03;;
70663;SDS011;58237;57.996;56.290;2023-09-30T06:54:13;6.80;;;1.63;;
70663;SDS011;58237;57.996;56.290;2023-09-30T06:56:38;4.75;;;1.90;;
70663;SDS011;58237;57.996;56.290;2023-09-30T06:59:04;5.35;;;1.95;;
70663;SDS011;58237;57.996;56.290;2023-09-30T07:01:31;3.28;;;1.52;;
70663;SDS011;58237;57.996;56.290;2023-09-30T07:03:57;4.13;;;1.70;;
70663;SDS011;58237;57.996;56.290;2023-09-30T07:06:23;7.35;;;1.85;;
70663;SDS011;58237;57.996;56.290;2023-09-30T07:08:49;4.32;;;1.77;;
70663;SDS011;58237;57.996;56.290;2023-09-30T07:11:15;4.68;;;1.55;;
70663;SDS011;58237;57.996;56.290;2023-09-30T07:13:40;5.05;;;1.83;;
70663;SDS011;58237;57.996;56.290;2023-09-30T07:16:06;4.65;;;2.08;;
70663;SDS011;58237;57.996;56.290;2023-09-30T07:18:31;2.97;;;1.38;;
70663;SDS011;58237;57.996;56.290;2023-09-30T07:20:57;3.45;;;1.35;;
70663;SDS011;58237;57.996;56.290;2023-09-30T07:23:22;6.78;;;1.92;;
70663;SDS011;58237;57.996;56.290;2023-09-30T07:25:48;3.42;;;1.60;;
70663;SDS011;58237;57.996;56.290;2023-09-30T07:28:14;5.35;;;2.10;;
70663;SDS011;58237;57.996;56.290;2023-09-30T07:30:40;4.85;;;2.08;;
70663;SDS011;58237;57.996;56.290;2023-09-30T07:33:06;4.03;;;1.70;;
70663;SDS011;58237;57.996;56.290;2023-09-30T07:35:33;5.78;;;2.03;;
70663;SDS011;58237;57.996;56.290;2023-09-30T07:37:59;3.90;;;1.70;;
70663;SDS011;58237;57.996;56.290;2023-09-30T07:40:25;4.43;;;1.55;;
70663;SDS011;58237;57.996;56.290;2023-09-30T07:42:50;3.50;;;1.70;;
70663;SDS011;58237;57.996;56.290;2023-09-30T07:45:16;3.80;;;1.38;;
70663;SDS011;58237;57.996;56.290;2023-09-30T07:47:45;5.60;;;2.47;;
70663;SDS011;58237;57.996;56.290;2023-09-30T07:50:14;5.60;;;2.30;;
70663;SDS011;58237;57.996;56.290;2023-09-30T07:52:40;5.80;;;2.28;;
70663;SDS011;58237;57.996;56.290;2023-09-30T07:55:08;4.75;;;2.40;;
70663;SDS011;58237;57.996;56.290;2023-09-30T07:57:33;4.10;;;1.98;;
70663;SDS011;58237;57.996;56.290;2023-09-30T07:59:59;6.35;;;2.85;;
70663;SDS011;58237;57.996;56.290;2023-09-30T08:02:24;8.70;;;2.38;;
70663;SDS011;58237;57.996;56.290;2023-09-30T08:04:53;5.20;;;2.17;;
70663;SDS011;58237;57.996;56.290;2023-09-30T08:07:19;4.53;;;1.73;;
70663;SDS011;58237;57.996;56.290;2023-09-30T08:09:44;6.53;;;2.05;;
70663;SDS011;58237;57.996;56.290;2023-09-30T08:12:10;5.20;;;2.03;;
70663;SDS011;58237;57.996;56.290;2023-09-30T08:14:35;3.70;;;1.67;;
70663;SDS011;58237;57.996;56.290;2023-09-30T08:17:01;4.57;;;1.80;;
70663;SDS011;58237;57.996;56.290;2023-09-30T08:19:28;4.95;;;1.75;;
70663;SDS011;58237;57.996;56.290;2023-09-30T08:21:53;3.42;;;1.42;;
70663;SDS011;58237;57.996;56.290;2023-09-30T08:24:19;4.97;;;1.90;;
70663;SDS011;58237;57.996;56.290;2023-09-30T08:26:45;5.13;;;1.65;;
70663;SDS011;58237;57.996;56.290;2023-09-30T08:29:10;5.03;;;2.17;;
70663;SDS011;58237;57.996;56.290;2023-09-30T08:31:36;5.45;;;1.48;;
70663;SDS011;58237;57.996;56.290;2023-09-30T08:34:02;5.15;;;1.85;;
70663;SDS011;58237;57.996;56.290;2023-09-30T08:36:29;4.68;;;1.52;;
70663;SDS011;58237;57.996;56.290;2023-09-30T08:38:55;4.97;;;1.90;;
70663;SDS011;58237;57.996;56.290;2023-09-30T08:41:30;5.03;;;2.13;;
70663;SDS011;58237;57.996;56.290;2023-09-30T08:43:59;4.88;;;1.85;;
70663;SDS011;58237;57.996;56.290;2023-09-30T08:46:24;4.72;;;1.70;;
70663;SDS011;58237;57.996;56.290;2023-09-30T08:48:51;4.50;;;1.77;;
70663;SDS011;58237;57.996;56.290;2023-09-30T08:51:18;5.10;;;1.60;;
70663;SDS011;58237;57.996;56.290;2023-09-30T08:53:44;3.97;;;1.45;;
70663;SDS011;58237;57.996;56.290;2023-09-30T08:56:10;4.38;;;1.73;;
70663;SDS011;58237;57.996;56.290;2023-09-30T08:58:37;4.95;;;2.00;;
70663;SDS011;58237;57.996;56.290;2023-09-30T09:01:03;7.43;;;3.28;;
70663;SDS011;58237;57.996;56.290;2023-09-30T09:03:29;3.67;;;1.73;;
70663;SDS011;58237;57.996;56.290;2023-09-30T09:05:57;5.50;;;1.85;;
70663;SDS011;58237;57.996;56.290;2023-09-30T09:08:24;4.65;;;1.67;;
70663;SDS011;58237;57.996;56.290;2023-09-30T09:10:54;3.92;;;1.52;;
70663;SDS011;58237;57.996;56.290;2023-09-30T09:13:21;3.53;;;1.73;;
70663;SDS011;58237;57.996;56.290;2023-09-30T09:15:47;4.18;;;2.13;;
70663;SDS011;58237;57.996;56.290;2023-09-30T09:18:14;6.53;;;1.95;;
70663;SDS011;58237;57.996;56.290;2023-09-30T09:21:07;3.97;;;1.52;;
70663;SDS011;58237;57.996;56.290;2023-09-30T09:23:34;5.80;;;2.15;;
70663;SDS011;58237;57.996;56.290;2023-09-30T09:26:03;7.35;;;1.75;;
70663;SDS011;58237;57.996;56.290;2023-09-30T09:28:34;5.63;;;1.75;;
70663;SDS011;58237;57.996;56.290;2023-09-30T09:31:19;5.50;;;2.03;;
70663;SDS011;58237;57.996;56.290;2023-09-30T09:33:45;4.43;;;1.88;;
70663;SDS011;58237;57.996;56.290;2023-09-30T09:36:11;5.57;;;2.05;;
70663;SDS011;58237;57.996;56.290;2023-09-30T09:38:49;5.68;;;1.90;;
70663;SDS011;58237;57.996;56.290;2023-09-30T09:41:18;5.40;;;2.20;;
70663;SDS011;58237;57.996;56.290;2023-09-30T09:43:43;4.97;;;2.05;;
70663;SDS011;58237;57.996;56.290;2023-09-30T09:46:10;5.80;;;2.25;;
70663;SDS011;58237;57.996;56.290;2023-09-30T09:48:36;6.10;;;1.88;;
70663;SDS011;58237;57.996;56.290;2023-09-30T09:51:02;4.30;;;1.65;;
70663;SDS011;58237;57.996;56.290;2023-09-30T09:53:30;4.60;;;2.13;;
70663;SDS011;58237;57.996;56.290;2023-09-30T09:55:58;4.65;;;1.85;;
70663;SDS011;58237;57.996;56.290;2023-09-30T09:58:25;4.85;;;1.80;;
70663;SDS011;58237;57.996;56.290;2023-09-30T10:00:52;5.25;;;1.90;;
70663;SDS011;58237;57.996;56.290;2023-09-30T10:03:18;5.70;;;1.85;;
70663;SDS011;58237;57.996;56.290;2023-09-30T10:05:44;3.03;;;1.42;;
70663;SDS011;58237;57.996;56.290;2023-09-30T10:08:14;4.05;;;1.88;;
70663;SDS011;58237;57.996;56.290;2023-09-30T10:10:42;4.57;;;1.70;;
70663;SDS011;58237;57.996;56.290;2023-09-30T10:13:09;5.20;;;2.22;;
70663;SDS011;58237;57.996;56.290;2023-09-30T10:15:35;5.05;;;1.98;;
70663;SDS011;58237;57.996;56.290;2023-09-30T10:20:31;5.30;;;1.83;;
70663;SDS011;58237;57.996;56.290;2023-09-30T10:25:41;7.43;;;2.47;;
70663;SDS011;58237;57.996;56.290;2023-09-30T10:31:12;6.30;;;2.38;;
70663;SDS011;58237;57.996;56.290;2023-09-30T10:36:33;6.13;;;2.15;;
70663;SDS011;58237;57.996;56.290;2023-09-30T10:38:59;4.55;;;1.77;;
70663;SDS011;58237;57.996;56.290;2023-09-30T10:46:47;5.28;;;2.25;;
70663;SDS011;58237;57.996;56.290;2023-09-30T10:49:17;5.82;;;2.33;;
70663;SDS011;58237;57.996;56.290;2023-09-30T10:51:43;5.85;;;2.20;;
70663;SDS011;58237;57.996;56.290;2023-09-30T10:54:09;4.40;;;2.20;;
70663;SDS011;58237;57.996;56.290;2023-09-30T10:56:35;7.18;;;3.03;;
70663;SDS011;58237;57.996;56.290;2023-09-30T10:59:01;6.55;;;3.03;;
70663;SDS011;58237;57.996;56.290;2023-09-30T11:01:34;6.28;;;2.47;;
70663;SDS011;58237;57.996;56.290;2023-09-30T11:04:01;6.57;;;2.55;;
70663;SDS011;58237;57.996;56.290;2023-09-30T11:06:31;6.32;;;2.90;;
70663;SDS011;58237;57.996;56.290;2023-09-30T11:08:57;7.53;;;3.45;;
70663;SDS011;58237;57.996;56.290;2023-09-30T11:13:58;9.10;;;4.05;;
70663;SDS011;58237;57.996;56.290;2023-09-30T11:16:24;8.57;;;3.88;;
70663;SDS011;58237;57.996;56.290;2023-09-30T11:18:53;13.20;;;5.40;;
70663;SDS011;58237;57.996;56.290;2023-09-30T11:21:19;9.90;;;4.47;;
70663;SDS011;58237;57.996;56.290;2023-09-30T11:23:45;9.82;;;4.20;;
70663;SDS011;58237;57.996;56.290;2023-09-30T11:26:11;10.90;;;5.70;;
70663;SDS011;58237;57.996;56.290;2023-09-30T11:28:40;9.95;;;4.60;;
70663;SDS011;58237;57.996;56.290;2023-09-30T11:31:10;9.77;;;4.28;;
70663;SDS011;58237;57.996;56.290;2023-09-30T11:33:53;9.30;;;4.20;;
70663;SDS011;58237;57.996;56.290;2023-09-30T11:36:19;8.70;;;3.78;;
70663;SDS011;58237;57.996;56.290;2023-09-30T11:38:46;7.93;;;4.18;;
70663;SDS011;58237;57.996;56.290;2023-09-30T11:41:13;7.32;;;3.38;;
70663;SDS011;58237;57.996;56.290;2023-09-30T11:43:39;9.05;;;3.83;;
70663;SDS011;58237;57.996;56.290;2023-09-30T11:46:05;7.22;;;3.20;;
70663;SDS011;58237;57.996;56.290;2023-09-30T11:48:31;8.98;;;3.65;;
70663;SDS011;58237;57.996;56.290;2023-09-30T11:50:58;9.25;;;4.22;;
70663;SDS011;58237;57.996;56.290;2023-09-30T11:53:25;7.72;;;3.60;;
70663;SDS011;58237;57.996;56.290;2023-09-30T11:55:51;10.13;;;4.28;;
70663;SDS011;58237;57.996;56.290;2023-09-30T11:58:20;9.43;;;4.43;;
70663;SDS011;58237;57.996;56.290;2023-09-30T12:00:46;8.80;;;4.25;;
70663;SDS011;58237;57.996;56.290;2023-09-30T12:03:11;9.75;;;4.78;;
70663;SDS011;58237;57.996;56.290;2023-09-30T12:05:37;9.68;;;4.75;;
70663;SDS011;58237;57.996;56.290;2023-09-30T12:08:03;11.05;;;5.57;;
70663;SDS011;58237;57.996;56.290;2023-09-30T12:10:28;10.35;;;4.85;;
70663;SDS011;58237;57.996;56.290;2023-09-30T12:12:56;11.82;;;5.03;;
70663;SDS011;58237;57.996;56.290;2023-09-30T12:15:21;14.10;;;5.07;;
70663;SDS011;58237;57.996;56.290;2023-09-30T12:17:47;11.10;;;5.10;;
70663;SDS011;58237;57.996;56.290;2023-09-30T12:20:13;12.05;;;5.35;;
70663;SDS011;58237;57.996;56.290;2023-09-30T12:22:41;10.75;;;4.85;;
70663;SDS011;58237;57.996;56.290;2023-09-30T12:25:06;12.13;;;5.13;;
70663;SDS011;58237;57.996;56.290;2023-09-30T12:27:33;10.70;;;4.78;;
70663;SDS011;58237;57.996;56.290;2023-09-30T12:29:59;12.43;;;4.97;;
70663;SDS011;58237;57.996;56.290;2023-09-30T12:32:25;12.65;;;5.22;;
70663;SDS011;58237;57.996;56.290;2023-09-30T12:34:53;12.63;;;5.22;;
70663;SDS011;58237;57.996;56.290;2023-09-30T12:37:18;12.77;;;5.40;;
70663;SDS011;58237;57.996;56.290;2023-09-30T12:39:44;10.80;;;4.47;;
70663;SDS011;58237;57.996;56.290;2023-09-30T12:42:10;10.02;;;4.90;;
70663;SDS011;58237;57.996;56.290;2023-09-30T12:44:38;10.52;;;5.25;;
70663;SDS011;58237;57.996;56.290;2023-09-30T12:47:04;12.65;;;5.45;;
70663;SDS011;58237;57.996;56.290;2023-09-30T12:49:30;11.23;;;5.97;;
70663;SDS011;58237;57.996;56.290;2023-09-30T12:51:56;16.17;;;6.15;;
70663;SDS011;58237;57.996;56.290;2023-09-30T12:54:23;12.88;;;6.05;;
70663;SDS011;58237;57.996;56.290;2023-09-30T12:56:49;15.10;;;6.25;;
70663;SDS011;58237;57.996;56.290;2023-09-30T12:59:16;11.05;;;5.40;;
70663;SDS011;58237;57.996;56.290;2023-09-30T13:01:43;11.98;;;5.45;;
70663;SDS011;58237;57.996;56.290;2023-09-30T13:04:08;11.20;;;5.03;;
70663;SDS011;58237;57.996;56.290;2023-09-30T13:06:34;11.05;;;4.93;;
70663;SDS011;58237;57.996;56.290;2023-09-30T13:09:01;9.80;;;4.63;;
70663;SDS011;58237;57.996;56.290;2023-09-30T13:11:29;9.90;;;5.03;;
70663;SDS011;58237;57.996;56.290;2023-09-30T13:13:54;11.45;;;5.30;;
70663;SDS011;58237;57.996;56.290;2023-09-30T13:16:20;12.52;;;4.90;;
70663;SDS011;58237;57.996;56.290;2023-09-30T13:18:46;9.23;;;4.20;;
70663;SDS011;58237;57.996;56.290;2023-09-30T13:21:13;9.38;;;3.90;;
70663;SDS011;58237;57.996;56.290;2023-09-30T13:23:39;11.02;;;4.32;;
70663;SDS011;58237;57.996;56.290;2023-09-30T13:26:04;8.88;;;3.72;;
70663;SDS011;58237;57.996;56.290;2023-09-30T13:28:30;8.98;;;3.92;;
70663;SDS011;58237;57.996;56.290;2023-09-30T13:30:56;8.43;;;3.88;;
70663;SDS011;58237;57.996;56.290;2023-09-30T13:33:22;10.23;;;4.88;;
70663;SDS011;58237;57.996;56.290;2023-09-30T13:35:47;12.60;;;5.18;;
70663;SDS011;58237;57.996;56.290;2023-09-30T13:38:13;13.60;;;5.72;;
70663;SDS011;58237;57.996;56.290;2023-09-30T13:40:38;11.70;;;5.88;;
70663;SDS011;58237;57.996;56.290;2023-09-30T13:43:05;12.45;;;5.07;;
70663;SDS011;58237;57.996;56.290;2023-09-30T13:45:30;12.77;;;5.53;;
70663;SDS011;58237;57.996;56.290;2023-09-30T13:47:56;13.20;;;6.65;;
70663;SDS011;58237;57.996;56.290;2023-09-30T13:50:22;12.98;;;5.65;;
70663;SDS011;58237;57.996;56.290;2023-09-30T13:52:47;12.77;;;5.90;;
70663;SDS011;58237;57.996;56.290;2023-09-30T13:55:13;12.15;;;5.60;;
70663;SDS011;58237;57.996;56.290;2023-09-30T13:57:46;11.23;;;6.00;;
70663;SDS011;58237;57.996;56.290;2023-09-30T14:00:13;13.10;;;6.82;;
70663;SDS011;58237;57.996;56.290;2023-09-30T14:02:38;12.20;;;5.93;;
70663;SDS011;58237;57.996;56.290;2023-09-30T14:05:05;13.85;;;6.53;;
70663;SDS011;58237;57.996;56.290;2023-09-30T14:07:33;12.80;;;6.13;;
70663;SDS011;58237;57.996;56.290;2023-09-30T14:09:58;13.30;;;5.95;;
70663;SDS011;58237;57.996;56.290;2023-09-30T14:12:24;13.38;;;6.18;;
70663;SDS011;58237;57.996;56.290;2023-09-30T14:14:50;12.32;;;5.93;;
70663;SDS011;58237;57.996;56.290;2023-09-30T14:17:17;15.30;;;6.97;;
70663;SDS011;58237;57.996;56.290;2023-09-30T14:19:43;13.13;;;6.53;;
70663;SDS011;58237;57.996;56.290;2023-09-30T14:22:09;15.68;;;8.13;;
70663;SDS011;58237;57.996;56.290;2023-09-30T14:24:35;17.42;;;9.35;;
70663;SDS011;58237;57.996;56.290;2023-09-30T14:27:03;14.52;;;7.22;;
70663;SDS011;58237;57.996;56.290;2023-09-30T14:29:32;16.38;;;7.88;;
70663;SDS011;58237;57.996;56.290;2023-09-30T14:31:58;14.30;;;6.95;;
70663;SDS011;58237;57.996;56.290;2023-09-30T14:34:24;14.80;;;7.18;;
70663;SDS011;58237;57.996;56.290;2023-09-30T14:36:50;15.52;;;7.28;;
70663;SDS011;58237;57.996;56.290;2023-09-30T14:39:16;10.95;;;6.05;;
70663;SDS011;58237;57.996;56.290;2023-09-30T14:41:43;11.05;;;5.65;;
70663;SDS011;58237;57.996;56.290;2023-09-30T14:44:09;12.95;;;6.60;;
70663;SDS011;58237;57.996;56.290;2023-09-30T14:46:37;15.68;;;7.45;;
70663;SDS011;58237;57.996;56.290;2023-09-30T14:49:03;15.75;;;7.22;;